Time;durP1;ratioP1;P1;durP2;ratioP2;P2;SDS_P1;SDS_P2;PMS_P1;PMS_P2;Temp;Humidity;BMP_temperature;BMP_pressure;BME280_temperature;BME280_humidity;BME280_pressure;Samples;Min_cycle;Max_cycle;Signal;HPM_P1;HPM_P2
2021/06/01 00:00:26;;;;;;;30.38;15.48;;;;;;;12.09;54.97;100383.59;5013510;28;20140;-76
2021/06/01 00:02:52;;;;;;;35.05;16.17;;;;;;;12.13;54.98;100384.41;5016270;28;21362;-64
2021/06/01 00:05:18;;;;;;;31.23;15.90;;;;;;;12.16;55.21;100371.06;5016550;28;20121;-65
2021/06/01 00:07:43;;;;;;;31.90;16.58;;;;;;;12.06;55.97;100377.41;5015734;28;20049;-69
2021/06/01 00:10:10;;;;;;;32.92;14.50;;;;;;;12.09;55.34;100351.69;4995246;28;20477;-65
2021/06/01 00:12:36;;;;;;;36.17;15.60;;;;;;;12.22;55.95;100374.50;4998888;28;20050;-65
2021/06/01 00:15:05;;;;;;;30.63;13.95;;;;;;;12.14;56.96;100368.44;5002819;28;20040;-64
2021/06/01 00:17:32;;;;;;;29.88;14.82;;;;;;;12.05;57.76;100373.91;4979554;28;20414;-76
2021/06/01 00:19:59;;;;;;;34.35;13.45;;;;;;;12.00;57.41;100348.28;5018850;28;20104;-71
2021/06/01 00:22:25;;;;;;;34.15;14.18;;;;;;;12.10;57.73;100390.66;5014580;28;20042;-65
2021/06/01 00:24:51;;;;;;;34.03;14.45;;;;;;;11.96;58.34;100358.13;5019663;28;20076;-66
2021/06/01 00:27:17;;;;;;;37.00;14.50;;;;;;;11.94;59.57;100377.63;5013610;28;20046;-66
2021/06/01 00:29:42;;;;;;;42.45;14.27;;;;;;;11.84;59.33;100379.56;4999559;28;20137;-66
2021/06/01 00:32:08;;;;;;;32.00;13.30;;;;;;;11.94;58.90;100374.97;5015567;28;20041;-66
2021/06/01 00:34:34;;;;;;;32.50;12.52;;;;;;;11.79;58.33;100367.25;4997137;28;20700;-75
2021/06/01 00:37:00;;;;;;;28.25;12.77;;;;;;;11.93;58.32;100382.06;5012089;28;20037;-66
2021/06/01 00:39:26;;;;;;;30.13;12.20;;;;;;;11.94;58.34;100374.97;5022548;28;20405;-65
2021/06/01 00:41:52;;;;;;;29.13;12.80;;;;;;;12.04;57.88;100385.44;5017905;28;20132;-64
2021/06/01 00:44:18;;;;;;;27.33;11.82;;;;;;;11.82;57.90;100349.47;5015578;28;20220;-64
2021/06/01 00:46:44;;;;;;;29.27;11.40;;;;;;;11.97;57.16;100375.81;5016194;28;20048;-68
2021/06/01 00:49:10;;;;;;;25.42;11.48;;;;;;;11.87;58.11;100390.13;5003469;28;20095;-65
2021/06/01 00:51:36;;;;;;;25.48;10.65;;;;;;;11.80;57.34;100384.94;5003412;28;20517;-67
2021/06/01 00:54:02;;;;;;;28.27;10.10;;;;;;;11.81;56.76;100378.72;4997223;28;20042;-64
2021/06/01 00:56:32;;;;;;;23.88;10.10;;;;;;;11.93;56.95;100390.03;5022228;28;20075;-67
2021/06/01 00:58:58;;;;;;;24.52;10.30;;;;;;;11.84;56.20;100363.63;5002314;28;20041;-65
2021/06/01 01:01:25;;;;;;;29.00;10.60;;;;;;;11.73;57.35;100346.97;5011904;28;20053;-68
2021/06/01 01:03:53;;;;;;;27.08;10.50;;;;;;;12.00;56.68;100388.16;5019834;28;20204;-65
2021/06/01 01:06:23;;;;;;;22.08;10.65;;;;;;;11.82;57.42;100359.22;5004886;28;20104;-66
2021/06/01 01:08:55;;;;;;;26.30;10.40;;;;;;;11.97;56.79;100380.22;5006642;28;20740;-70
2021/06/01 01:11:39;;;;;;;24.27;11.38;;;;;;;11.91;57.47;100383.88;5016335;28;20042;-64
2021/06/01 01:14:11;;;;;;;22.67;10.70;;;;;;;11.92;56.98;100384.75;4992711;28;20045;-68
2021/06/01 01:16:44;;;;;;;22.92;10.52;;;;;;;11.79;57.15;100391.16;5008910;28;20049;-64
2021/06/01 01:19:16;;;;;;;28.88;11.23;;;;;;;11.81;57.19;100386.69;5024429;28;20096;-67
2021/06/01 01:21:51;;;;;;;24.70;11.02;;;;;;;11.67;57.20;100378.91;5004540;28;20048;-72
2021/06/01 01:24:38;;;;;;;27.38;11.18;;;;;;;11.84;56.97;100389.31;5011848;28;20556;-68
2021/06/01 01:27:20;;;;;;;32.58;12.77;;;;;;;11.74;58.03;100390.34;5013106;28;20056;-63
2021/06/01 01:29:48;;;;;;;23.85;12.32;;;;;;;11.66;58.74;100378.94;5014932;28;20046;-63
2021/06/01 01:32:24;;;;;;;30.77;13.57;;;;;;;11.55;59.05;100389.69;5011005;28;20133;-65
2021/06/01 01:34:52;;;;;;;31.33;13.77;;;;;;;11.66;59.16;100386.91;4993675;28;20096;-65
2021/06/01 01:37:19;;;;;;;27.48;11.88;;;;;;;11.64;58.54;100389.63;5021238;28;20064;-65
2021/06/01 01:39:50;;;;;;;22.83;11.88;;;;;;;11.62;58.55;100386.09;5002294;28;20124;-76
2021/06/01 01:42:17;;;;;;;31.20;11.43;;;;;;;11.54;58.22;100382.63;5009391;28;20048;-64
2021/06/01 01:44:50;;;;;;;32.95;11.32;;;;;;;11.54;58.46;100389.72;5026021;28;20128;-67
2021/06/01 01:50:01;;;;;;;31.58;12.90;;;;;;;11.29;59.63;100372.38;5024798;28;20049;-66
2021/06/01 01:52:29;;;;;;;25.77;11.80;;;;;;;11.46;59.05;100392.47;5026685;28;20508;-65
2021/06/01 01:54:55;;;;;;;24.17;10.93;;;;;;;11.53;58.82;100399.47;5007938;28;20046;-64
2021/06/01 01:57:24;;;;;;;24.10;12.10;;;;;;;11.47;59.38;100385.41;5010673;28;20099;-63
2021/06/01 01:59:51;;;;;;;29.52;12.48;;;;;;;11.47;58.87;100404.84;4989661;28;20054;-64
2021/06/01 02:02:18;;;;;;;34.55;12.35;;;;;;;11.46;58.81;100379.19;4995362;28;20154;-65
2021/06/01 02:04:45;;;;;;;28.40;11.68;;;;;;;11.49;59.00;100396.88;5008253;28;20038;-64
2021/06/01 02:07:11;;;;;;;29.90;11.55;;;;;;;11.45;58.84;100400.47;4995894;28;20486;-63
2021/06/01 02:09:37;;;;;;;26.58;10.50;;;;;;;11.49;58.56;100404.84;5000543;28;20064;-64
2021/06/01 02:12:04;;;;;;;23.15;10.20;;;;;;;11.38;58.53;100399.69;5021460;28;20464;-63
2021/06/01 02:14:29;;;;;;;21.63;9.93;;;;;;;11.31;58.15;100389.16;5015844;28;20038;-65
2021/06/01 02:16:58;;;;;;;32.70;10.48;;;;;;;11.37;58.63;100410.31;4992834;28;20045;-64
2021/06/01 02:19:25;;;;;;;28.42;9.98;;;;;;;11.44;58.13;100404.88;5004806;28;20111;-73
2021/06/01 02:24:34;;;;;;;30.98;9.52;;;;;;;11.47;57.09;100412.81;5008364;28;20044;-64
2021/06/01 02:27:12;;;;;;;20.85;8.80;;;;;;;11.44;56.61;100409.34;4995284;28;20470;-63
2021/06/01 02:30:00;;;;;;;27.88;9.50;;;;;;;11.53;56.99;100415.41;4989999;28;20049;-64
2021/06/01 02:32:46;;;;;;;19.48;8.73;;;;;;;11.34;56.55;100418.31;5006679;28;20073;-64
2021/06/01 02:35:14;;;;;;;23.00;9.07;;;;;;;11.39;56.49;100395.25;4996318;28;20491;-66
2021/06/01 02:37:42;;;;;;;22.15;7.75;;;;;;;11.49;55.54;100428.75;4987929;28;20537;-58
2021/06/01 02:40:11;;;;;;;17.70;8.10;;;;;;;11.50;56.10;100418.09;5022637;28;20100;-70
2021/06/01 02:42:41;;;;;;;19.70;8.73;;;;;;;11.27;56.59;100395.41;4990990;28;20104;-63
2021/06/01 02:45:11;;;;;;;19.55;8.63;;;;;;;11.49;55.75;100415.47;5023295;28;20065;-66
2021/06/01 02:47:37;;;;;;;16.05;8.13;;;;;;;11.63;55.76;100419.72;5003441;28;20058;-65
2021/06/01 02:50:09;;;;;;;23.30;8.65;;;;;;;11.58;55.05;100428.59;4988629;28;20068;-63
2021/06/01 02:52:36;;;;;;;17.25;8.05;;;;;;;11.65;54.69;100420.59;4996491;28;20049;-66
2021/06/01 02:55:04;;;;;;;20.42;8.30;;;;;;;11.68;55.08;100417.91;5005502;28;20136;-65
2021/06/01 02:57:32;;;;;;;19.30;8.48;;;;;;;11.73;54.92;100416.03;5002187;28;20478;-79
2021/06/01 02:59:59;;;;;;;21.60;8.68;;;;;;;11.75;54.89;100414.22;5003011;28;20058;-76
2021/06/01 03:02:31;;;;;;;24.83;7.63;;;;;;;11.59;54.65;100423.28;4969056;28;20050;-85
2021/06/01 03:04:57;;;;;;;20.60;8.65;;;;;;;11.37;55.56;100397.94;4969621;28;20172;-79
2021/06/01 03:07:23;;;;;;;13.77;7.88;;;;;;;11.69;54.93;100422.31;4984451;28;20109;-80
2021/06/01 03:09:49;;;;;;;27.10;8.73;;;;;;;11.73;54.51;100424.00;4968257;28;20039;-77
2021/06/01 03:15:12;;;;;;;16.95;7.97;;;;;;;11.69;54.01;100390.41;4983789;28;20078;-77
2021/06/01 03:17:38;;;;;;;16.48;7.45;;;;;;;11.91;54.73;100433.50;4969352;28;20074;-77
2021/06/01 03:20:05;;;;;;;12.63;6.68;;;;;;;11.74;54.41;100425.75;4985116;28;20073;-75
2021/06/01 03:22:32;;;;;;;14.80;7.07;;;;;;;11.89;53.81;100422.00;4984280;28;20077;-78
2021/06/01 03:24:59;;;;;;;14.65;6.63;;;;;;;11.72;53.76;100408.09;4970305;28;20139;-76
2021/06/01 03:27:25;;;;;;;16.63;6.78;;;;;;;11.90;53.31;100429.06;4983177;28;20574;-75
2021/06/01 03:29:50;;;;;;;17.98;7.22;;;;;;;11.94;53.75;100436.09;4971350;28;20078;-76
2021/06/01 03:32:16;;;;;;;18.63;6.07;;;;;;;11.81;54.10;100407.94;4983655;28;20263;-76
2021/06/01 03:34:42;;;;;;;15.95;6.00;;;;;;;12.01;53.05;100430.69;4985854;28;20050;-77
2021/06/01 03:37:08;;;;;;;11.57;6.28;;;;;;;12.12;52.93;100442.03;4969162;28;20085;-75
2021/06/01 03:39:34;;;;;;;19.20;6.68;;;;;;;12.24;52.70;100446.25;4984679;28;20046;-77
2021/06/01 03:42:00;;;;;;;16.90;6.50;;;;;;;12.21;52.24;100443.66;4985257;28;20042;-77
2021/06/01 03:44:26;;;;;;;13.90;5.65;;;;;;;12.11;52.29;100439.38;4985941;28;20058;-78
2021/06/01 03:46:52;;;;;;;14.50;5.85;;;;;;;12.00;52.25;100391.72;4986153;28;20046;-79
2021/06/01 03:49:18;;;;;;;16.83;6.20;;;;;;;12.37;51.44;100450.47;4983438;28;20092;-79
2021/06/01 03:51:44;;;;;;;21.08;5.57;;;;;;;12.51;51.37;100449.34;4970096;28;20074;-74
2021/06/01 03:54:10;;;;;;;14.95;5.57;;;;;;;12.69;51.63;100446.38;4958391;28;20101;-76
2021/06/01 03:56:36;;;;;;;22.27;9.38;;;;;;;12.85;51.29;100449.63;4969112;28;20391;-81
2021/06/01 03:59:04;;;;;;;12.95;5.57;;;;;;;12.84;51.29;100446.09;4966882;28;20589;-83
2021/06/01 04:01:30;;;;;;;13.23;4.93;;;;;;;12.89;50.04;100436.22;4998303;28;20498;-79
2021/06/01 04:03:56;;;;;;;16.67;4.88;;;;;;;12.92;50.05;100445.94;4972247;28;20054;-79
2021/06/01 04:06:22;;;;;;;20.88;5.85;;;;;;;12.91;50.21;100452.19;5001482;28;20076;-81
2021/06/01 04:08:48;;;;;;;19.50;5.40;;;;;;;13.05;49.86;100453.72;4985702;28;20133;-82
2021/06/01 04:11:14;;;;;;;17.02;4.90;;;;;;;13.12;49.33;100460.69;4976748;28;20530;-81
2021/06/01 04:13:40;;;;;;;14.45;4.95;;;;;;;13.19;49.20;100456.09;4978310;28;20435;-80
2021/06/01 04:16:07;;;;;;;15.27;4.90;;;;;;;13.28;48.77;100445.25;4982120;28;20042;-79
2021/06/01 04:18:33;;;;;;;12.98;4.45;;;;;;;13.28;48.57;100431.94;4970399;28;20081;-81
2021/06/01 04:20:59;;;;;;;12.93;5.05;;;;;;;13.49;48.11;100451.03;4974765;28;20049;-83
2021/06/01 04:23:26;;;;;;;9.90;4.55;;;;;;;13.60;47.65;100445.47;4990461;28;20050;-83
2021/06/01 04:25:52;;;;;;;14.40;4.65;;;;;;;13.65;46.81;100440.94;4998922;28;20129;-73
2021/06/01 04:28:18;;;;;;;12.70;4.10;;;;;;;13.73;46.56;100460.31;4986574;28;20050;-74
2021/06/01 04:30:45;;;;;;;11.40;4.18;;;;;;;13.64;46.56;100450.72;4978624;28;20092;-75
2021/06/01 04:33:11;;;;;;;19.60;4.90;;;;;;;13.55;46.48;100429.59;4984827;28;20042;-75
2021/06/01 04:35:38;;;;;;;21.23;4.18;;;;;;;13.90;46.36;100459.00;5002437;28;20042;-75
2021/06/01 04:38:04;;;;;;;11.98;4.18;;;;;;;13.85;46.23;100449.38;5002652;28;20055;-76
2021/06/01 04:40:31;;;;;;;15.63;3.80;;;;;;;13.82;45.93;100466.28;4987111;28;20045;-79
2021/06/01 04:42:57;;;;;;;16.08;3.95;;;;;;;13.86;45.75;100467.13;4990732;28;20042;-72
2021/06/01 04:45:23;;;;;;;11.15;3.60;;;;;;;13.92;45.19;100458.09;4967855;28;20047;-79
2021/06/01 04:47:50;;;;;;;13.15;3.45;;;;;;;14.09;44.53;100463.94;4968368;28;20055;-77
2021/06/01 04:50:16;;;;;;;8.48;3.50;;;;;;;14.25;44.83;100471.59;4982238;28;20051;-77
2021/06/01 04:52:42;;;;;;;9.60;3.85;;;;;;;14.47;44.47;100466.59;4967084;28;20503;-76
2021/06/01 04:55:11;;;;;;;12.57;3.33;;;;;;;14.56;44.26;100461.88;4982314;28;20064;-76
2021/06/01 04:57:41;;;;;;;11.98;3.00;;;;;;;14.55;43.97;100462.81;4984692;28;20050;-76
2021/06/01 05:00:09;;;;;;;10.00;3.38;;;;;;;14.76;43.60;100475.63;4984833;28;20135;-75
2021/06/01 05:02:35;;;;;;;10.27;3.97;;;;;;;14.87;43.80;100467.34;4970205;28;20051;-75
2021/06/01 05:05:01;;;;;;;12.90;3.63;;;;;;;14.91;43.70;100461.88;4994694;28;20097;-63
2021/06/01 05:07:27;;;;;;;12.00;3.40;;;;;;;15.08;42.62;100472.09;4976505;28;20046;-64
2021/06/01 05:09:59;;;;;;;10.98;3.17;;;;;;;15.00;43.34;100482.13;4984148;28;20046;-63
2021/06/01 05:12:25;;;;;;;6.38;2.75;;;;;;;15.15;43.05;100479.03;4985063;28;20093;-64
2021/06/01 05:14:51;;;;;;;7.35;3.30;;;;;;;15.15;42.75;100484.38;4964893;28;20518;-65
2021/06/01 05:17:17;;;;;;;9.93;3.10;;;;;;;15.18;42.00;100481.59;4983572;28;20121;-66
2021/06/01 05:19:42;;;;;;;8.63;2.65;;;;;;;15.03;41.78;100477.56;4980385;28;20043;-66
2021/06/01 05:22:08;;;;;;;13.63;3.08;;;;;;;14.96;42.13;100462.66;4976981;28;20133;-65
2021/06/01 05:24:34;;;;;;;11.60;2.97;;;;;;;15.16;41.11;100479.00;4990807;28;20073;-67
2021/06/01 05:27:02;;;;;;;7.03;2.35;;;;;;;15.04;41.91;100478.44;4977441;28;20100;-68
2021/06/01 05:29:28;;;;;;;13.45;2.92;;;;;;;14.91;41.36;100463.69;4975880;28;20464;-66
2021/06/01 05:34:23;;;;;;;3.88;1.98;;;;;;;15.29;41.03;100479.53;4974824;28;20089;-66
2021/06/01 05:36:49;;;;;;;8.18;2.55;;;;;;;15.35;40.48;100484.75;4967626;28;20221;-66
2021/06/01 05:39:15;;;;;;;8.38;2.47;;;;;;;15.57;40.38;100477.84;4984156;28;20050;-70
2021/06/01 05:41:42;;;;;;;15.20;2.30;;;;;;;15.86;40.51;100483.25;4969832;28;20046;-67
2021/06/01 05:44:08;;;;;;;11.85;2.70;;;;;;;15.86;39.75;100484.09;4989251;28;20109;-65
2021/06/01 05:46:34;;;;;;;7.15;2.55;;;;;;;15.85;39.72;100492.16;4970560;28;20047;-63
2021/06/01 05:49:02;;;;;;;5.18;2.25;;;;;;;15.80;39.74;100488.75;4972509;28;20425;-68
2021/06/01 05:51:35;;;;;;;8.57;2.67;;;;;;;15.47;39.87;100490.59;4967406;28;20595;-65
2021/06/01 05:54:05;;;;;;;;;;;;;;;15.59;38.92;100487.59;4979793;28;20331;-65
2021/06/01 05:56:31;;;;;;;5.75;2.00;;;;;;;15.66;38.63;100477.63;4995343;28;20346;-65
2021/06/01 05:58:57;;;;;;;7.82;2.33;;;;;;;15.62;38.43;100490.19;4969915;28;20043;-70
2021/06/01 06:01:23;;;;;;;8.48;2.50;;;;;;;15.98;38.12;100496.25;5023051;28;20515;-65
2021/06/01 06:03:49;;;;;;;12.10;2.28;;;;;;;16.29;38.11;100494.34;5010507;28;20422;-65
2021/06/01 06:06:15;;;;;;;7.93;2.40;;;;;;;16.09;37.53;100494.09;5000061;28;20049;-66
2021/06/01 06:08:42;;;;;;;16.52;2.47;;;;;;;16.48;38.00;100498.25;5011948;28;20053;-64
2021/06/01 06:11:09;;;;;;;9.15;2.70;;;;;;;16.55;36.52;100500.69;5014178;28;20069;-64
2021/06/01 06:13:36;;;;;;;5.03;2.30;;;;;;;16.79;36.62;100499.88;5003263;28;20429;-65
2021/06/01 06:16:05;;;;;;;6.03;2.30;;;;;;;16.76;36.13;100477.66;5016458;28;20042;-66
2021/06/01 06:18:31;;;;;;;11.32;2.30;;;;;;;16.92;36.37;100500.31;4998840;28;20045;-65
2021/06/01 06:21:02;;;;;;;7.57;2.25;;;;;;;16.98;36.07;100498.31;4998223;28;20045;-69
2021/06/01 06:23:34;;;;;;;4.05;2.15;;;;;;;17.06;35.86;100498.06;5001961;28;20049;-68
2021/06/01 06:26:02;;;;;;;11.20;3.03;;;;;;;17.05;35.57;100490.97;4983776;28;20037;-67
2021/06/01 06:28:30;;;;;;;7.78;2.17;;;;;;;16.76;35.57;100488.38;5014631;28;20057;-71
2021/06/01 06:30:56;;;;;;;11.60;2.17;;;;;;;17.36;35.68;100494.28;4985405;28;20037;-68
2021/06/01 06:33:22;;;;;;;10.05;2.42;;;;;;;17.55;35.18;100500.75;5018645;28;20048;-66
2021/06/01 06:35:50;;;;;;;6.88;2.10;;;;;;;17.56;34.79;100475.69;5003405;28;20045;-65
2021/06/01 06:38:17;;;;;;;7.07;2.10;;;;;;;17.59;34.60;100484.53;5003437;28;20069;-64
2021/06/01 06:40:47;;;;;;;10.85;2.53;;;;;;;17.40;34.67;100488.78;5004318;28;20049;-64
2021/06/01 06:43:12;;;;;;;10.80;2.35;;;;;;;17.35;35.22;100493.44;5025303;28;20049;-65
2021/06/01 06:45:38;;;;;;;9.18;2.22;;;;;;;17.81;34.29;100468.50;5006699;28;20041;-68
2021/06/01 06:48:09;;;;;;;11.00;1.85;;;;;;;17.61;33.61;100492.50;4992110;28;20037;-67
2021/06/01 06:50:36;;;;;;;7.05;2.38;;;;;;;17.64;33.96;100490.56;5009239;28;20045;-63
2021/06/01 06:53:04;;;;;;;8.05;2.53;;;;;;;17.88;33.65;100495.03;5010090;28;20049;-68
2021/06/01 06:55:30;;;;;;;6.80;1.85;;;;;;;18.04;33.37;100487.28;5008874;28;20555;-65
2021/06/01 06:57:56;;;;;;;8.30;2.28;;;;;;;18.00;33.32;100489.19;5019481;28;20401;-63
2021/06/01 07:00:24;;;;;;;8.32;2.00;;;;;;;18.13;32.83;100488.72;5016768;28;20159;-67
2021/06/01 07:02:50;;;;;;;10.65;2.50;;;;;;;17.76;32.48;100492.81;5000378;28;20413;-65
2021/06/01 07:05:19;;;;;;;8.35;2.10;;;;;;;18.04;32.22;100492.66;5013063;28;20049;-64
2021/06/01 07:07:51;;;;;;;8.38;2.40;;;;;;;18.35;31.97;100486.97;5013827;28;20124;-66
2021/06/01 07:10:18;;;;;;;8.40;2.40;;;;;;;18.10;32.23;100495.06;5002354;28;20115;-64
2021/06/01 07:12:45;;;;;;;6.70;2.13;;;;;;;18.64;31.88;100492.03;5016213;28;20057;-65
2021/06/01 07:15:23;;;;;;;3.88;2.03;;;;;;;18.83;30.12;100504.63;4994198;28;20041;-66
2021/06/01 07:17:56;;;;;;;8.65;2.35;;;;;;;19.07;30.43;100500.88;5015596;28;20049;-66
2021/06/01 07:20:22;;;;;;;8.95;2.70;;;;;;;18.91;30.15;100483.66;5000094;28;20326;-64
2021/06/01 07:22:50;;;;;;;8.52;2.28;;;;;;;18.90;30.62;100478.38;5009123;28;20449;-65
2021/06/01 07:25:16;;;;;;;4.13;1.80;;;;;;;19.18;30.61;100501.31;5010761;28;20038;-64
2021/06/01 07:27:42;;;;;;;8.25;2.22;;;;;;;19.15;30.03;100495.22;5021013;28;20045;-68
2021/06/01 07:30:09;;;;;;;7.90;2.13;;;;;;;19.08;29.65;100499.97;5004462;28;20053;-67
2021/06/01 07:32:36;;;;;;;7.47;2.40;;;;;;;19.05;29.95;100493.84;5019654;28;20128;-66
2021/06/01 07:35:03;;;;;;;10.25;1.95;;;;;;;19.11;29.02;100490.91;5022373;28;20132;-67
2021/06/01 07:37:29;;;;;;;10.52;2.20;;;;;;;19.12;29.02;100492.63;5017116;28;20041;-71
2021/06/01 07:39:55;;;;;;;6.50;2.33;;;;;;;19.37;29.02;100499.59;5015711;28;20473;-66
2021/06/01 07:42:22;;;;;;;11.68;2.53;;;;;;;19.41;28.91;100506.59;5016800;28;20049;-66
2021/06/01 07:44:49;;;;;;;14.80;2.45;;;;;;;19.76;28.63;100500.50;5016407;28;20133;-68
2021/06/01 07:47:14;;;;;;;5.72;2.00;;;;;;;19.94;28.39;100501.50;5013133;28;20053;-68
2021/06/01 07:49:40;;;;;;;7.57;2.40;;;;;;;19.99;28.21;100500.34;5023764;28;20052;-70
2021/06/01 07:52:06;;;;;;;5.85;2.55;;;;;;;20.15;28.45;100493.31;5017753;28;20045;-70
2021/06/01 07:54:33;;;;;;;10.27;2.15;;;;;;;19.77;27.66;100498.69;5016456;28;20091;-68
2021/06/01 07:56:59;;;;;;;15.60;2.45;;;;;;;20.02;28.57;100493.94;5015863;28;20490;-67
2021/06/01 07:59:25;;;;;;;14.98;2.15;;;;;;;20.18;28.23;100495.84;4996803;28;20157;-72
2021/06/01 08:01:51;;;;;;;9.85;2.15;;;;;;;20.39;27.49;100483.19;5017951;28;20087;-70
2021/06/01 08:04:17;;;;;;;7.35;2.13;;;;;;;20.72;27.04;100478.81;4995980;28;20049;-65
2021/06/01 08:06:43;;;;;;;7.20;1.77;;;;;;;20.97;26.88;100499.09;5025350;28;20047;-71
2021/06/01 08:09:09;;;;;;;5.15;2.22;;;;;;;20.82;27.21;100501.69;4979622;28;20089;-70
2021/06/01 08:11:36;;;;;;;14.10;2.25;;;;;;;20.21;27.28;100482.25;4998921;28;20100;-68
2021/06/01 08:14:02;;;;;;;9.40;2.10;;;;;;;19.72;27.88;100493.53;5021117;28;20042;-65
2021/06/01 08:16:31;;;;;;;4.50;1.95;;;;;;;20.56;27.41;100491.31;5003605;28;20077;-75
2021/06/01 08:19:20;;;;;;;5.38;1.65;;;;;;;20.82;26.91;100497.16;5007962;28;20045;-63
2021/06/01 08:21:57;;;;;;;7.47;2.22;;;;;;;21.32;25.96;100500.03;4995969;28;20087;-69
2021/06/01 08:24:23;;;;;;;5.10;2.38;;;;;;;21.55;26.12;100503.25;5014025;28;20054;-63
2021/06/01 08:26:50;;;;;;;8.85;2.13;;;;;;;22.35;24.81;100500.66;5011487;28;20077;-64
2021/06/01 08:29:16;;;;;;;11.18;2.30;;;;;;;23.95;22.14;100507.22;5014699;28;20042;-73
2021/06/01 08:31:43;;;;;;;7.00;2.22;;;;;;;24.80;21.47;100514.28;5007550;28;20065;-70
2021/06/01 08:34:09;;;;;;;8.88;1.55;;;;;;;24.78;21.44;100510.81;5016354;28;20057;-69
2021/06/01 08:36:36;;;;;;;8.52;2.10;;;;;;;24.75;20.65;100513.72;5009886;28;20130;-68
2021/06/01 08:39:05;;;;;;;12.85;2.30;;;;;;;24.02;22.18;100516.72;4987954;28;20141;-66
2021/06/01 08:41:32;;;;;;;4.22;1.90;;;;;;;24.85;20.41;100512.13;4989327;28;20087;-72
2021/06/01 08:44:00;;;;;;;10.18;2.00;;;;;;;25.81;19.49;100518.16;5012913;28;20108;-69
2021/06/01 08:46:27;;;;;;;11.57;1.83;;;;;;;27.29;18.74;100514.38;5014026;28;20033;-76
2021/06/01 08:48:54;;;;;;;7.78;1.88;;;;;;;27.97;17.35;100514.47;4991171;28;20038;-68
2021/06/01 08:51:21;;;;;;;7.38;2.10;;;;;;;29.53;16.19;100510.38;4998857;28;20426;-67
2021/06/01 08:53:52;;;;;;;9.77;2.42;;;;;;;30.46;15.11;100524.94;5013251;28;20072;-66
2021/06/01 08:56:19;;;;;;;4.10;1.70;;;;;;;30.62;14.57;100517.94;5017690;28;20072;-66
2021/06/01 08:58:50;;;;;;;3.00;1.60;;;;;;;30.62;15.15;100534.38;4998137;28;20061;-65
2021/06/01 09:01:18;;;;;;;4.10;1.50;;;;;;;30.71;14.53;100521.72;4993130;28;20587;-67
2021/06/01 09:03:53;;;;;;;4.07;2.47;;;;;;;31.08;14.44;100518.19;4972853;28;20294;-74
2021/06/01 09:23:13;;;;;;;6.35;1.98;;;;;;;32.88;13.79;100538.16;4970003;28;20049;-74
2021/06/01 09:25:44;;;;;;;6.60;2.40;;;;;;;33.65;13.12;100528.31;4994120;28;20096;-76
2021/06/01 09:28:13;;;;;;;5.97;2.08;;;;;;;34.00;12.93;100516.44;4994303;28;20129;-75
2021/06/01 09:30:41;;;;;;;8.10;2.22;;;;;;;33.08;13.60;100524.13;4979439;28;20070;-72
2021/06/01 09:33:16;;;;;;;6.90;2.15;;;;;;;34.44;12.55;100529.97;4978226;28;20109;-72
2021/06/01 09:35:52;;;;;;;6.25;1.73;;;;;;;33.90;12.70;100532.16;4973419;28;20046;-69
2021/06/01 09:38:23;;;;;;;4.43;1.75;;;;;;;34.77;12.84;100500.69;4973711;28;20038;-68
2021/06/01 09:41:09;;;;;;;9.73;2.17;;;;;;;33.68;12.76;100527.13;4981981;28;20061;-68
2021/06/01 09:43:49;;;;;;;8.20;2.55;;;;;;;34.48;12.60;100530.53;4977666;28;20050;-68
2021/06/01 09:46:24;;;;;;;8.18;2.60;;;;;;;34.98;12.10;100525.91;4978380;28;20089;-71
2021/06/01 09:48:52;;;;;;;8.55;2.22;;;;;;;36.58;11.29;100537.91;4959771;28;20363;-67
2021/06/01 09:51:25;;;;;;;4.38;2.55;;;;;;;35.15;12.16;100528.56;4974423;28;20121;-69
2021/06/01 09:53:54;;;;;;;5.75;2.13;;;;;;;35.13;11.43;100514.09;4985494;28;20038;-72
2021/06/01 09:56:21;;;;;;;6.38;2.03;;;;;;;33.64;12.84;100509.22;4975241;28;20050;-69
2021/06/01 09:58:47;;;;;;;2.67;1.70;;;;;;;34.96;11.98;100519.72;4977048;28;20053;-71
2021/06/01 10:01:13;;;;;;;6.90;2.00;;;;;;;35.77;11.66;100525.25;4979071;28;20054;-70
2021/06/01 10:03:46;;;;;;;6.20;2.00;;;;;;;35.06;11.94;100515.78;4969980;28;20050;-69
2021/06/01 10:06:12;;;;;;;5.22;2.25;;;;;;;34.42;11.50;100504.50;4976574;28;20221;-72
2021/06/01 10:08:46;;;;;;;9.43;2.38;;;;;;;33.31;12.30;100502.53;4977863;28;20447;-67
2021/06/01 10:11:13;;;;;;;5.35;1.80;;;;;;;33.52;12.52;100508.59;4976788;28;20776;-70
2021/06/01 10:13:41;;;;;;;13.27;2.53;;;;;;;35.30;11.51;100515.00;4979911;28;20050;-69
2021/06/01 10:16:10;;;;;;;5.43;1.98;;;;;;;34.94;11.92;100505.22;4981108;28;20046;-65
2021/06/01 10:18:39;;;;;;;4.93;2.00;;;;;;;34.33;12.16;100499.94;4975997;28;20130;-76
2021/06/01 10:21:07;;;;;;;7.22;2.28;;;;;;;35.94;11.34;100513.16;4980358;28;20046;-71
2021/06/01 10:23:36;;;;;;;7.55;2.00;;;;;;;33.96;12.65;100501.22;4983840;28;20046;-66
2021/06/01 10:26:04;;;;;;;7.68;1.70;;;;;;;34.90;12.15;100492.81;4989706;28;20047;-69
2021/06/01 10:28:35;;;;;;;4.97;2.00;;;;;;;35.85;11.14;100489.34;4974730;28;20125;-69
2021/06/01 10:31:04;;;;;;;5.07;1.87;;;;;;;36.42;11.35;100510.31;4978640;28;20144;-68
2021/06/01 10:33:47;;;;;;;6.72;1.70;;;;;;;35.94;11.30;100507.63;4967399;28;20166;-74
2021/06/01 10:48:40;;;;;;;7.38;2.28;;;;;;;31.77;13.57;100489.69;4981065;28;20506;-71
2021/06/01 10:51:26;;;;;;;5.85;1.67;;;;;;;35.39;12.28;100490.00;4981190;28;20057;-70
2021/06/01 10:53:37;;;;;;;;;;;;;;;35.79;11.62;100486.44;4973769;28;20109;-66
2021/06/01 10:56:04;;;;;;;6.90;1.70;;;;;;;35.84;11.86;100492.28;4980835;28;19976;-67
2021/06/01 10:58:38;;;;;;;7.55;2.15;;;;;;;34.96;12.38;100493.00;4975880;28;20085;-68
2021/06/01 11:04:22;;;;;;;7.72;2.13;;;;;;;34.16;13.38;100466.97;4974991;28;20134;-69
2021/06/01 11:09:33;;;;;;;6.07;2.40;;;;;;;32.98;13.04;100461.97;4988924;28;20057;-67
2021/06/01 11:12:00;;;;;;;6.50;2.05;;;;;;;33.63;12.69;100456.09;4976245;28;20568;-73
2021/06/01 11:14:31;;;;;;;10.88;2.50;;;;;;;33.35;13.19;100450.84;4993155;28;20073;-68
2021/06/01 11:16:59;;;;;;;7.55;1.98;;;;;;;33.52;13.31;100447.19;4997801;28;20622;-69
2021/06/01 11:19:45;;;;;;;5.25;1.83;;;;;;;32.54;14.04;100451.81;4974314;28;20043;-71
2021/06/01 11:22:30;;;;;;;7.78;2.05;;;;;;;30.98;15.01;100437.00;4974759;28;20508;-66
2021/06/01 11:33:25;;;;;;;7.30;1.98;;;;;;;28.23;17.38;100415.00;4995511;28;20121;-66
2021/06/01 11:35:55;;;;;;;6.88;1.90;;;;;;;27.96;16.90;100439.09;4976763;28;20042;-68
2021/06/01 11:38:38;;;;;;;5.32;2.28;;;;;;;28.95;16.25;100428.03;4977305;28;20069;-64
2021/06/01 11:43:52;;;;;;;7.95;2.13;;;;;;;28.95;16.79;100420.69;4977725;28;20518;-68
2021/06/01 11:51:23;;;;;;;6.00;1.63;;;;;;;25.49;19.87;100417.19;4986644;28;20088;-69
2021/06/01 11:54:01;;;;;;;4.50;1.75;;;;;;;25.41;19.00;100414.16;4983039;28;20481;-69
2021/06/01 11:57:04;;;;;;;5.38;1.73;;;;;;;25.80;19.25;100416.72;4977780;28;20467;-67
2021/06/01 12:02:42;;;;;;;10.90;2.70;;;;;;;24.93;19.57;100414.78;4981556;28;20042;-66
2021/06/01 12:18:44;;;;;;;3.47;1.92;;;;;;;25.57;19.87;100403.06;4980710;28;20046;-68
2021/06/01 12:21:25;;;;;;;9.63;2.17;;;;;;;25.63;19.26;100408.91;4967444;28;20042;-67
2021/06/01 12:24:00;;;;;;;7.65;1.80;;;;;;;25.78;19.28;100409.66;4985606;28;20046;-68
2021/06/01 12:26:33;;;;;;;5.15;1.90;;;;;;;25.89;19.30;100396.19;4969809;28;20042;-67
2021/06/01 12:35:12;;;;;;;9.53;1.87;;;;;;;25.08;20.51;100407.47;4966957;28;20096;-68
2021/06/01 12:46:18;;;;;;;9.80;2.17;;;;;;;25.13;19.89;100405.28;4977000;28;20043;-69
2021/06/01 13:14:48;;;;;;;3.35;2.00;;;;;;;24.78;19.28;100388.72;5005903;28;20053;-78
2021/06/01 13:20:31;;;;;;;8.20;2.10;;;;;;;25.45;20.18;100384.91;5003282;28;20034;-74
2021/06/01 13:56:34;;;;;;;5.53;1.70;;;;;;;23.38;21.01;100375.41;5012987;28;20089;-75
2021/06/01 13:59:17;;;;;;;5.68;1.80;;;;;;;23.07;21.27;100388.22;5011345;28;20045;-75
2021/06/01 14:15:34;;;;;;;7.65;1.80;;;;;;;23.57;21.30;100383.28;5013581;28;20038;-73